sensor_id;sensor_type;location;lat;lon;timestamp;pressure;altitude;pressure_sealevel;temperature;humidity
7768;BME280;3928;42.626;23.382;2023-04-05T00:00:59;93636.66;;;3.17;84.04
7768;BME280;3928;42.626;23.382;2023-04-05T00:03:25;93564.81;;;2.72;84.35
7768;BME280;3928;42.626;23.382;2023-04-05T00:05:53;93633.28;;;3.07;84.89
7768;BME280;3928;42.626;23.382;2023-04-05T00:08:20;93628.22;;;3.15;85.34
7768;BME280;3928;42.626;23.382;2023-04-05T00:10:51;93615.56;;;3.12;84.61
7768;BME280;3928;42.626;23.382;2023-04-05T00:13:20;93629.06;;;3.29;84.70
7768;BME280;3928;42.626;23.382;2023-04-05T00:15:47;93627.38;;;3.13;85.00
7768;BME280;3928;42.626;23.382;2023-04-05T00:18:14;93630.75;;;3.01;84.51
7768;BME280;3928;42.626;23.382;2023-04-05T00:20:48;93621.44;;;2.92;85.19
7768;BME280;3928;42.626;23.382;2023-04-05T00:23:16;93632.41;;;2.84;85.62
7768;BME280;3928;42.626;23.382;2023-04-05T00:25:43;93592.75;;;2.86;85.66
7768;BME280;3928;42.626;23.382;2023-04-05T00:28:10;93633.28;;;3.01;86.15
7768;BME280;3928;42.626;23.382;2023-04-05T00:30:38;93602.88;;;2.90;85.66
7768;BME280;3928;42.626;23.382;2023-04-05T00:33:05;93646.81;;;3.28;84.81
7768;BME280;3928;42.626;23.382;2023-04-05T00:35:32;93632.44;;;3.16;85.18
7768;BME280;3928;42.626;23.382;2023-04-05T00:37:59;93639.22;;;3.14;85.32
7768;BME280;3928;42.626;23.382;2023-04-05T00:40:26;93636.66;;;3.02;85.13
7768;BME280;3928;42.626;23.382;2023-04-05T00:42:53;93642.59;;;2.98;85.63
7768;BME280;3928;42.626;23.382;2023-04-05T00:45:19;93625.69;;;3.15;84.96
7768;BME280;3928;42.626;23.382;2023-04-05T00:47:48;93601.16;;;2.79;85.06
7768;BME280;3928;42.626;23.382;2023-04-05T00:50:15;93615.50;;;2.61;85.68
7768;BME280;3928;42.626;23.382;2023-04-05T00:52:42;93625.63;;;2.72;85.15
7768;BME280;3928;42.626;23.382;2023-04-05T00:55:09;93641.72;;;2.96;85.14
7768;BME280;3928;42.626;23.382;2023-04-05T00:57:36;93635.00;;;3.08;84.26
7768;BME280;3928;42.626;23.382;2023-04-05T01:00:05;93629.06;;;2.88;84.58
7768;BME280;3928;42.626;23.382;2023-04-05T01:02:35;93645.09;;;2.91;83.89
7768;BME280;3928;42.626;23.382;2023-04-05T01:05:13;93641.66;;;2.71;85.01
7768;BME280;3928;42.626;23.382;2023-04-05T01:07:50;93648.44;;;2.66;85.17
7768;BME280;3928;42.626;23.382;2023-04-05T01:10:21;93645.06;;;2.61;85.18
7768;BME280;3928;42.626;23.382;2023-04-05T01:12:49;93647.59;;;2.82;84.95
7768;BME280;3928;42.626;23.382;2023-04-05T01:15:16;93654.38;;;2.74;85.41
7768;BME280;3928;42.626;23.382;2023-04-05T01:17:43;93625.69;;;2.84;84.67
7768;BME280;3928;42.626;23.382;2023-04-05T01:20:13;93645.09;;;2.88;84.32
7768;BME280;3928;42.626;23.382;2023-04-05T01:23:11;93654.38;;;2.96;84.29
7768;BME280;3928;42.626;23.382;2023-04-05T01:25:56;93650.19;;;3.16;83.80
7768;BME280;3928;42.626;23.382;2023-04-05T01:28:48;93656.97;;;3.20;82.88
7768;BME280;3928;42.626;23.382;2023-04-05T01:31:25;93648.50;;;3.27;82.72
7768;BME280;3928;42.626;23.382;2023-04-05T01:33:58;93657.78;;;3.31;83.25
7768;BME280;3928;42.626;23.382;2023-04-05T01:36:30;93642.59;;;3.39;82.59
7768;BME280;3928;42.626;23.382;2023-04-05T01:39:01;93647.66;;;3.49;81.85
7768;BME280;3928;42.626;23.382;2023-04-05T01:41:29;93651.06;;;3.33;82.06
7768;BME280;3928;42.626;23.382;2023-04-05T01:43:57;93649.38;;;3.20;82.46
7768;BME280;3928;42.626;23.382;2023-04-05T01:46:25;93645.97;;;3.30;82.45
7768;BME280;3928;42.626;23.382;2023-04-05T01:48:52;93643.44;;;3.24;81.66
7768;BME280;3928;42.626;23.382;2023-04-05T01:51:18;93648.50;;;3.10;82.43
7768;BME280;3928;42.626;23.382;2023-04-05T01:53:45;93638.38;;;3.21;82.09
7768;BME280;3928;42.626;23.382;2023-04-05T01:56:12;93644.28;;;2.99;82.24
7768;BME280;3928;42.626;23.382;2023-04-05T01:58:39;93649.34;;;2.99;82.76
7768;BME280;3928;42.626;23.382;2023-04-05T02:01:06;93653.56;;;3.01;82.33
7768;BME280;3928;42.626;23.382;2023-04-05T02:03:34;93656.91;;;2.91;82.24
7768;BME280;3928;42.626;23.382;2023-04-05T02:06:01;93665.38;;;3.01;82.38
7768;BME280;3928;42.626;23.382;2023-04-05T02:08:27;93659.44;;;2.96;82.27
7768;BME280;3928;42.626;23.382;2023-04-05T02:10:55;93657.78;;;3.07;81.92
7768;BME280;3928;42.626;23.382;2023-04-05T02:13:21;93651.88;;;3.11;81.40
7768;BME280;3928;42.626;23.382;2023-04-05T02:15:50;93629.03;;;2.91;81.83
7768;BME280;3928;42.626;23.382;2023-04-05T02:18:17;93648.50;;;3.13;81.54
7768;BME280;3928;42.626;23.382;2023-04-05T02:20:48;93645.97;;;3.18;81.79
7768;BME280;3928;42.626;23.382;2023-04-05T02:23:16;93651.06;;;3.24;81.62
7768;BME280;3928;42.626;23.382;2023-04-05T02:25:43;93628.22;;;3.19;81.59
7768;BME280;3928;42.626;23.382;2023-04-05T02:28:09;93652.75;;;3.34;81.09
7768;BME280;3928;42.626;23.382;2023-04-05T02:30:36;93654.44;;;3.44;81.22
7768;BME280;3928;42.626;23.382;2023-04-05T02:33:03;93640.91;;;3.16;80.79
7768;BME280;3928;42.626;23.382;2023-04-05T02:35:30;93657.81;;;3.28;81.30
7768;BME280;3928;42.626;23.382;2023-04-05T02:37:58;93651.06;;;3.24;81.34
7768;BME280;3928;42.626;23.382;2023-04-05T02:40:26;93653.59;;;3.38;81.27
7768;BME280;3928;42.626;23.382;2023-04-05T02:42:53;93654.44;;;3.35;80.93
7768;BME280;3928;42.626;23.382;2023-04-05T02:45:19;93648.50;;;3.16;81.00
7768;BME280;3928;42.626;23.382;2023-04-05T02:47:46;93656.97;;;3.34;80.77
7768;BME280;3928;42.626;23.382;2023-04-05T02:50:13;93651.06;;;3.36;80.60
7768;BME280;3928;42.626;23.382;2023-04-05T02:52:44;93644.28;;;3.35;81.81
7768;BME280;3928;42.626;23.382;2023-04-05T02:55:13;93645.97;;;3.42;81.05
7768;BME280;3928;42.626;23.382;2023-04-05T02:57:41;93650.22;;;3.57;79.97
7768;BME280;3928;42.626;23.382;2023-04-05T03:00:09;93640.88;;;3.55;79.71
7768;BME280;3928;42.626;23.382;2023-04-05T03:02:37;93614.69;;;3.37;79.97
7768;BME280;3928;42.626;23.382;2023-04-05T03:05:06;93640.91;;;3.39;80.06
7768;BME280;3928;42.626;23.382;2023-04-05T03:07:33;93645.97;;;3.45;80.03
7768;BME280;3928;42.626;23.382;2023-04-05T03:10:00;93642.59;;;3.42;80.37
7768;BME280;3928;42.626;23.382;2023-04-05T03:12:30;93653.56;;;3.51;79.86
7768;BME280;3928;42.626;23.382;2023-04-05T03:14:57;93628.22;;;3.39;80.17
7768;BME280;3928;42.626;23.382;2023-04-05T03:17:24;93614.69;;;3.40;79.94
7768;BME280;3928;42.626;23.382;2023-04-05T03:19:51;93656.94;;;3.52;80.19
7768;BME280;3928;42.626;23.382;2023-04-05T03:22:18;93644.25;;;3.63;79.48
7768;BME280;3928;42.626;23.382;2023-04-05T03:24:45;93618.91;;;3.57;78.97
7768;BME280;3928;42.626;23.382;2023-04-05T03:27:12;93651.03;;;3.61;79.40
7768;BME280;3928;42.626;23.382;2023-04-05T03:29:40;93640.88;;;3.67;79.82
7768;BME280;3928;42.626;23.382;2023-04-05T03:32:07;93644.25;;;3.72;79.47
7768;BME280;3928;42.626;23.382;2023-04-05T03:34:36;93655.25;;;3.72;78.62
7768;BME280;3928;42.626;23.382;2023-04-05T03:37:03;93641.72;;;3.61;79.92
7768;BME280;3928;42.626;23.382;2023-04-05T03:39:29;93634.97;;;3.51;79.48
7768;BME280;3928;42.626;23.382;2023-04-05T03:41:56;93653.56;;;3.70;79.75
7768;BME280;3928;42.626;23.382;2023-04-05T03:44:23;93657.78;;;3.80;79.41
7768;BME280;3928;42.626;23.382;2023-04-05T03:46:51;93654.41;;;3.75;79.77
7768;BME280;3928;42.626;23.382;2023-04-05T03:49:18;93664.56;;;3.47;80.92
7768;BME280;3928;42.626;23.382;2023-04-05T03:51:45;93662.03;;;3.63;80.89
7768;BME280;3928;42.626;23.382;2023-04-05T03:54:12;93676.41;;;3.79;80.28
7768;BME280;3928;42.626;23.382;2023-04-05T03:56:39;93660.34;;;3.49;81.73
7768;BME280;3928;42.626;23.382;2023-04-05T03:59:05;93671.31;;;3.64;82.47
7768;BME280;3928;42.626;23.382;2023-04-05T04:01:32;93658.63;;;3.73;82.18
7768;BME280;3928;42.626;23.382;2023-04-05T04:04:00;93657.78;;;3.91;81.78
7768;BME280;3928;42.626;23.382;2023-04-05T04:06:29;93676.41;;;3.79;81.06
7768;BME280;3928;42.626;23.382;2023-04-05T04:08:56;93646.81;;;3.57;82.40
7768;BME280;3928;42.626;23.382;2023-04-05T04:11:23;93677.25;;;3.69;83.24
7768;BME280;3928;42.626;23.382;2023-04-05T04:13:50;93669.63;;;3.84;83.28
7768;BME280;3928;42.626;23.382;2023-04-05T04:16:17;93682.28;;;3.89;83.94
7768;BME280;3928;42.626;23.382;2023-04-05T04:18:44;93679.72;;;4.02;83.45
7768;BME280;3928;42.626;23.382;2023-04-05T04:21:12;93677.19;;;4.15;83.38
7768;BME280;3928;42.626;23.382;2023-04-05T04:23:41;93682.25;;;4.08;82.68
7768;BME280;3928;42.626;23.382;2023-04-05T04:26:10;93680.56;;;4.17;87.78
7768;BME280;3928;42.626;23.382;2023-04-05T04:28:38;93676.28;;;4.25;83.82
7768;BME280;3928;42.626;23.382;2023-04-05T04:31:11;93674.56;;;4.34;84.43
7768;BME280;3928;42.626;23.382;2023-04-05T04:33:38;93681.34;;;4.40;82.64
7768;BME280;3928;42.626;23.382;2023-04-05T04:36:08;93660.16;;;4.44;81.03
7768;BME280;3928;42.626;23.382;2023-04-05T04:38:40;93686.38;;;4.54;80.13
7768;BME280;3928;42.626;23.382;2023-04-05T04:41:11;93684.63;;;4.60;79.73
7768;BME280;3928;42.626;23.382;2023-04-05T04:43:39;93674.44;;;4.66;78.67
7768;BME280;3928;42.626;23.382;2023-04-05T04:46:08;93682.84;;;4.82;78.52
7768;BME280;3928;42.626;23.382;2023-04-05T04:48:39;93682.88;;;4.72;77.73
7768;BME280;3928;42.626;23.382;2023-04-05T04:51:07;93676.03;;;4.90;77.41
7768;BME280;3928;42.626;23.382;2023-04-05T04:53:34;93678.66;;;4.75;76.79
7768;BME280;3928;42.626;23.382;2023-04-05T04:56:05;93683.03;;;4.41;76.03
7768;BME280;3928;42.626;23.382;2023-04-05T04:58:32;93684.75;;;4.33;75.95
7768;BME280;3928;42.626;23.382;2023-04-05T05:00:58;93687.28;;;4.30;76.34
7768;BME280;3928;42.626;23.382;2023-04-05T05:03:25;93685.59;;;4.30;76.67
7768;BME280;3928;42.626;23.382;2023-04-05T05:05:52;93693.25;;;4.14;74.88
7768;BME280;3928;42.626;23.382;2023-04-05T05:08:19;93694.94;;;4.10;74.47
7768;BME280;3928;42.626;23.382;2023-04-05T05:10:50;93692.38;;;4.21;75.05
7768;BME280;3928;42.626;23.382;2023-04-05T05:13:19;93688.94;;;4.37;75.00
7768;BME280;3928;42.626;23.382;2023-04-05T05:15:45;93665.38;;;3.95;74.38
7768;BME280;3928;42.626;23.382;2023-04-05T05:18:12;93693.22;;;4.23;74.56
7768;BME280;3928;42.626;23.382;2023-04-05T05:20:40;93692.31;;;4.47;75.36
7768;BME280;3928;42.626;23.382;2023-04-05T05:23:07;93690.56;;;4.61;75.54
7768;BME280;3928;42.626;23.382;2023-04-05T05:25:34;93682.97;;;4.53;74.33
7768;BME280;3928;42.626;23.382;2023-04-05T05:28:01;93695.63;;;4.65;75.60
7768;BME280;3928;42.626;23.382;2023-04-05T05:30:29;93688.03;;;4.62;75.61
7768;BME280;3928;42.626;23.382;2023-04-05T05:32:56;93700.66;;;4.73;74.73
7768;BME280;3928;42.626;23.382;2023-04-05T05:35:23;93705.81;;;4.56;75.35
7768;BME280;3928;42.626;23.382;2023-04-05T05:37:49;93691.41;;;4.66;75.62
7768;BME280;3928;42.626;23.382;2023-04-05T05:40:17;93699.09;;;4.42;74.99
7768;BME280;3928;42.626;23.382;2023-04-05T05:42:43;93692.25;;;4.59;74.86
7768;BME280;3928;42.626;23.382;2023-04-05T05:45:11;93689.66;;;4.79;74.32
7768;BME280;3928;42.626;23.382;2023-04-05T05:47:39;93693.06;;;4.68;72.86
7768;BME280;3928;42.626;23.382;2023-04-05T05:50:07;93696.44;;;4.70;73.84
7768;BME280;3928;42.626;23.382;2023-04-05T05:52:34;93695.56;;;4.79;73.71
7768;BME280;3928;42.626;23.382;2023-04-05T05:55:01;93657.50;;;4.68;73.76
7768;BME280;3928;42.626;23.382;2023-04-05T05:57:28;93679.38;;;4.97;73.45
7768;BME280;3928;42.626;23.382;2023-04-05T05:59:55;93691.28;;;4.89;73.04
7768;BME280;3928;42.626;23.382;2023-04-05T06:02:22;93693.69;;;5.15;72.34
7768;BME280;3928;42.626;23.382;2023-04-05T06:04:50;93702.97;;;5.23;72.09
7768;BME280;3928;42.626;23.382;2023-04-05T06:07:17;93699.44;;;5.43;70.60
7768;BME280;3928;42.626;23.382;2023-04-05T06:09:43;93703.69;;;5.45;69.48
7768;BME280;3928;42.626;23.382;2023-04-05T06:12:11;93706.19;;;5.50;69.75
7768;BME280;3928;42.626;23.382;2023-04-05T06:14:38;93702.63;;;5.72;69.93
7768;BME280;3928;42.626;23.382;2023-04-05T06:17:05;93702.56;;;5.81;69.07
7768;BME280;3928;42.626;23.382;2023-04-05T06:19:32;93694.13;;;5.72;68.36
7768;BME280;3928;42.626;23.382;2023-04-05T06:22:00;93705.09;;;5.78;66.63
7768;BME280;3928;42.626;23.382;2023-04-05T06:24:27;93698.31;;;5.77;65.38
7768;BME280;3928;42.626;23.382;2023-04-05T06:26:56;93705.06;;;5.84;63.61
7768;BME280;3928;42.626;23.382;2023-04-05T06:29:23;93688.97;;;5.78;64.68
7768;BME280;3928;42.626;23.382;2023-04-05T06:31:50;93715.22;;;5.86;63.36
7768;BME280;3928;42.626;23.382;2023-04-05T06:34:17;93706.78;;;5.78;63.34
7768;BME280;3928;42.626;23.382;2023-04-05T06:36:43;93714.47;;;5.73;64.19
7768;BME280;3928;42.626;23.382;2023-04-05T06:39:12;93716.91;;;5.87;64.22
7768;BME280;3928;42.626;23.382;2023-04-05T06:41:39;93715.25;;;5.84;63.52
7768;BME280;3928;42.626;23.382;2023-04-05T06:44:05;93728.06;;;5.74;64.58
7768;BME280;3928;42.626;23.382;2023-04-05T06:46:32;93723.72;;;5.86;64.07
7768;BME280;3928;42.626;23.382;2023-04-05T06:48:59;93727.91;;;5.95;64.10
7768;BME280;3928;42.626;23.382;2023-04-05T06:51:26;93730.31;;;6.10;64.10
7768;BME280;3928;42.626;23.382;2023-04-05T06:53:53;93730.34;;;6.09;64.34
7768;BME280;3928;42.626;23.382;2023-04-05T06:56:21;93729.56;;;6.01;62.46
7768;BME280;3928;42.626;23.382;2023-04-05T06:58:48;93738.94;;;5.97;63.08
7768;BME280;3928;42.626;23.382;2023-04-05T07:01:16;93730.47;;;5.89;63.51
7768;BME280;3928;42.626;23.382;2023-04-05T07:03:43;93745.81;;;5.83;61.05
7768;BME280;3928;42.626;23.382;2023-04-05T07:06:09;93743.22;;;5.91;59.91
7768;BME280;3928;42.626;23.382;2023-04-05T07:08:37;93745.03;;;5.72;59.52
7768;BME280;3928;42.626;23.382;2023-04-05T07:11:03;93724.88;;;5.46;60.67
7768;BME280;3928;42.626;23.382;2023-04-05T07:13:32;93757.03;;;5.53;60.60
7768;BME280;3928;42.626;23.382;2023-04-05T07:15:59;93756.94;;;5.70;59.88
7768;BME280;3928;42.626;23.382;2023-04-05T07:18:27;93750.41;;;5.34;60.36
7768;BME280;3928;42.626;23.382;2023-04-05T07:20:56;93763.91;;;5.42;61.17
7768;BME280;3928;42.626;23.382;2023-04-05T07:23:26;93749.47;;;5.47;61.01
7768;BME280;3928;42.626;23.382;2023-04-05T07:25:53;93756.22;;;5.51;61.34
7768;BME280;3928;42.626;23.382;2023-04-05T07:28:20;93746.78;;;5.65;60.22
7768;BME280;3928;42.626;23.382;2023-04-05T07:30:48;93753.88;;;5.14;61.96
7768;BME280;3928;42.626;23.382;2023-04-05T07:33:15;93756.31;;;5.33;61.57
7768;BME280;3928;42.626;23.382;2023-04-05T07:35:42;93757.16;;;5.38;61.88
7768;BME280;3928;42.626;23.382;2023-04-05T07:38:09;93767.34;;;5.32;61.17
7768;BME280;3928;42.626;23.382;2023-04-05T07:40:36;93730.88;;;5.34;60.06
7768;BME280;3928;42.626;23.382;2023-04-05T07:43:02;93770.59;;;5.55;61.03
7768;BME280;3928;42.626;23.382;2023-04-05T07:45:29;93763.09;;;5.32;60.58
7768;BME280;3928;42.626;23.382;2023-04-05T07:47:58;93775.69;;;5.58;61.31
7768;BME280;3928;42.626;23.382;2023-04-05T07:50:25;93772.25;;;5.62;61.28
7768;BME280;3928;42.626;23.382;2023-04-05T07:52:52;93774.78;;;5.65;61.83
7768;BME280;3928;42.626;23.382;2023-04-05T07:55:18;93771.22;;;5.91;60.78
7768;BME280;3928;42.626;23.382;2023-04-05T07:57:45;93772.94;;;5.90;60.38
7768;BME280;3928;42.626;23.382;2023-04-05T08:00:13;93775.44;;;5.96;60.04
7768;BME280;3928;42.626;23.382;2023-04-05T08:02:40;93781.34;;;6.04;59.57
7768;BME280;3928;42.626;23.382;2023-04-05T08:05:08;93788.22;;;5.90;61.01
7768;BME280;3928;42.626;23.382;2023-04-05T08:07:35;93780.50;;;6.04;60.86
7768;BME280;3928;42.626;23.382;2023-04-05T08:10:03;93788.97;;;6.04;59.88
7768;BME280;3928;42.626;23.382;2023-04-05T08:12:30;93786.50;;;5.95;57.93
7768;BME280;3928;42.626;23.382;2023-04-05T08:14:57;93793.28;;;5.92;58.84
7768;BME280;3928;42.626;23.382;2023-04-05T08:17:24;93795.00;;;5.88;60.06
7768;BME280;3928;42.626;23.382;2023-04-05T08:19:52;93776.44;;;5.71;60.89
7768;BME280;3928;42.626;23.382;2023-04-05T08:22:20;93806.03;;;5.92;61.02
7768;BME280;3928;42.626;23.382;2023-04-05T08:24:47;93806.91;;;5.86;59.80
7768;BME280;3928;42.626;23.382;2023-04-05T08:27:14;93806.00;;;5.98;59.30
7768;BME280;3928;42.626;23.382;2023-04-05T08:29:42;93800.09;;;5.93;59.55
7768;BME280;3928;42.626;23.382;2023-04-05T08:32:09;93797.53;;;5.96;58.82
7768;BME280;3928;42.626;23.382;2023-04-05T08:34:36;93794.06;;;6.06;58.91
7768;BME280;3928;42.626;23.382;2023-04-05T08:37:03;93797.34;;;6.15;58.71
7768;BME280;3928;42.626;23.382;2023-04-05T08:39:33;93796.53;;;6.13;59.46
7768;BME280;3928;42.626;23.382;2023-04-05T08:42:03;93807.59;;;6.09;58.93
7768;BME280;3928;42.626;23.382;2023-04-05T08:44:30;93753.44;;;5.84;59.47
7768;BME280;3928;42.626;23.382;2023-04-05T08:46:57;93811.72;;;6.24;60.56
7768;BME280;3928;42.626;23.382;2023-04-05T08:49:24;93823.53;;;6.34;59.36
7768;BME280;3928;42.626;23.382;2023-04-05T08:51:52;93816.09;;;6.10;58.54
7768;BME280;3928;42.626;23.382;2023-04-05T08:54:19;93798.44;;;5.79;58.37
7768;BME280;3928;42.626;23.382;2023-04-05T08:56:47;93830.63;;;5.88;59.92
7768;BME280;3928;42.626;23.382;2023-04-05T08:59:17;93818.78;;;5.93;59.72
7768;BME280;3928;42.626;23.382;2023-04-05T09:01:45;93831.44;;;6.01;60.69
7768;BME280;3928;42.626;23.382;2023-04-05T09:04:15;93827.16;;;6.07;60.75
7768;BME280;3928;42.626;23.382;2023-04-05T09:06:44;93527.19;;;4.47;60.60
7768;BME280;3928;42.626;23.382;2023-04-05T09:09:11;93830.41;;;6.28;60.13
7768;BME280;3928;42.626;23.382;2023-04-05T09:11:39;93826.94;;;6.33;58.70
7768;BME280;3928;42.626;23.382;2023-04-05T09:14:08;93832.97;;;6.23;58.66
7768;BME280;3928;42.626;23.382;2023-04-05T09:16:37;93837.06;;;6.44;57.20
7768;BME280;3928;42.626;23.382;2023-04-05T09:19:04;93836.13;;;6.54;57.80
7768;BME280;3928;42.626;23.382;2023-04-05T09:21:59;93838.66;;;6.56;58.40
7768;BME280;3928;42.626;23.382;2023-04-05T09:24:34;93830.16;;;6.55;59.55
7768;BME280;3928;42.626;23.382;2023-04-05T09:27:05;93816.59;;;6.53;60.10
7768;BME280;3928;42.626;23.382;2023-04-05T09:29:34;93832.66;;;6.60;59.20
7768;BME280;3928;42.626;23.382;2023-04-05T09:32:01;93840.25;;;6.66;59.68
7768;BME280;3928;42.626;23.382;2023-04-05T09:34:29;93838.56;;;6.65;59.12
7768;BME280;3928;42.626;23.382;2023-04-05T09:36:57;93827.31;;;6.84;59.57
7768;BME280;3928;42.626;23.382;2023-04-05T09:39:28;93748.72;;;6.41;59.02
7768;BME280;3928;42.626;23.382;2023-04-05T09:42:04;93828.03;;;7.00;59.52
7768;BME280;3928;42.626;23.382;2023-04-05T09:44:51;93841.50;;;7.08;58.14
7768;BME280;3928;42.626;23.382;2023-04-05T09:47:19;93830.69;;;6.86;57.89
7768;BME280;3928;42.626;23.382;2023-04-05T09:49:46;93805.16;;;6.89;57.60
7768;BME280;3928;42.626;23.382;2023-04-05T09:52:23;93834.66;;;7.15;58.31
7768;BME280;3928;42.626;23.382;2023-04-05T09:55:07;93838.69;;;7.34;58.46
7768;BME280;3928;42.626;23.382;2023-04-05T09:57:36;93808.06;;;7.34;57.31
7768;BME280;3928;42.626;23.382;2023-04-05T10:00:06;93848.75;;;7.43;57.22
7768;BME280;3928;42.626;23.382;2023-04-05T10:02:42;93841.94;;;7.45;57.07
7768;BME280;3928;42.626;23.382;2023-04-05T10:05:12;93843.91;;;7.22;58.05
7768;BME280;3928;42.626;23.382;2023-04-05T10:07:40;93820.53;;;6.83;58.60
7768;BME280;3928;42.626;23.382;2023-04-05T10:10:08;93832.25;;;6.98;57.65
7768;BME280;3928;42.626;23.382;2023-04-05T10:12:37;93837.63;;;6.73;58.56
7768;BME280;3928;42.626;23.382;2023-04-05T10:15:07;93840.28;;;6.61;57.41
7768;BME280;3928;42.626;23.382;2023-04-05T10:17:38;93835.19;;;6.64;56.91
7768;BME280;3928;42.626;23.382;2023-04-05T10:20:19;93838.78;;;6.40;57.66
7768;BME280;3928;42.626;23.382;2023-04-05T10:22:58;93825.91;;;6.56;58.64
7768;BME280;3928;42.626;23.382;2023-04-05T10:25:33;93832.72;;;6.54;58.01
7768;BME280;3928;42.626;23.382;2023-04-05T10:28:09;93825.94;;;6.53;57.49
7768;BME280;3928;42.626;23.382;2023-04-05T10:30:41;93738.06;;;6.00;56.47
7768;BME280;3928;42.626;23.382;2023-04-05T10:33:15;93837.97;;;6.35;57.73
7768;BME280;3928;42.626;23.382;2023-04-05T10:36:01;93838.16;;;6.11;58.28
7768;BME280;3928;42.626;23.382;2023-04-05T10:38:36;93834.53;;;6.42;56.34
7768;BME280;3928;42.626;23.382;2023-04-05T10:41:09;93842.47;;;6.04;56.27
7768;BME280;3928;42.626;23.382;2023-04-05T10:43:39;93841.66;;;5.92;58.24
7768;BME280;3928;42.626;23.382;2023-04-05T10:46:09;93837.38;;;6.01;57.63
7768;BME280;3928;42.626;23.382;2023-04-05T10:48:43;93849.25;;;6.04;57.97
7768;BME280;3928;42.626;23.382;2023-04-05T10:51:11;93848.28;;;6.20;57.68
7768;BME280;3928;42.626;23.382;2023-04-05T10:53:39;93850.94;;;6.06;57.85
7768;BME280;3928;42.626;23.382;2023-04-05T10:56:07;93839.13;;;5.95;58.11
7768;BME280;3928;42.626;23.382;2023-04-05T10:58:34;93850.16;;;5.91;59.30
7768;BME280;3928;42.626;23.382;2023-04-05T11:01:04;93839.03;;;6.08;60.66
7768;BME280;3928;42.626;23.382;2023-04-05T11:03:44;93848.25;;;6.23;60.19
7768;BME280;3928;42.626;23.382;2023-04-05T11:06:22;93840.53;;;6.32;58.14
7768;BME280;3928;42.626;23.382;2023-04-05T11:08:52;93854.84;;;6.52;59.24
7768;BME280;3928;42.626;23.382;2023-04-05T11:11:23;93843.91;;;6.36;57.61
7768;BME280;3928;42.626;23.382;2023-04-05T11:13:52;93838.78;;;6.37;56.35
7768;BME280;3928;42.626;23.382;2023-04-05T11:16:20;93853.72;;;6.79;56.00
7768;BME280;3928;42.626;23.382;2023-04-05T11:18:50;93829.41;;;6.42;55.82
7768;BME280;3928;42.626;23.382;2023-04-05T11:21:22;93851.31;;;6.62;57.60
7768;BME280;3928;42.626;23.382;2023-04-05T11:24:00;93840.28;;;6.64;55.89
7768;BME280;3928;42.626;23.382;2023-04-05T11:26:31;93853.66;;;6.88;55.98
7768;BME280;3928;42.626;23.382;2023-04-05T11:28:58;93858.84;;;6.77;55.22
7768;BME280;3928;42.626;23.382;2023-04-05T11:31:24;93854.75;;;6.59;56.22
7768;BME280;3928;42.626;23.382;2023-04-05T11:33:57;93847.78;;;6.78;56.05
7768;BME280;3928;42.626;23.382;2023-04-05T11:36:32;93845.91;;;6.95;54.83
7768;BME280;3928;42.626;23.382;2023-04-05T11:39:24;93851.78;;;7.02;54.62
7768;BME280;3928;42.626;23.382;2023-04-05T11:41:58;93854.97;;;7.21;53.87
7768;BME280;3928;42.626;23.382;2023-04-05T11:44:25;93843.19;;;7.09;53.94
7768;BME280;3928;42.626;23.382;2023-04-05T11:46:52;93849.25;;;7.02;54.77
7768;BME280;3928;42.626;23.382;2023-04-05T11:49:24;93853.13;;;7.33;55.24
7768;BME280;3928;42.626;23.382;2023-04-05T11:51:52;93857.97;;;7.58;52.68
7768;BME280;3928;42.626;23.382;2023-04-05T11:54:29;93827.34;;;6.81;54.32
7768;BME280;3928;42.626;23.382;2023-04-05T11:56:56;93823.75;;;7.00;55.49
7768;BME280;3928;42.626;23.382;2023-04-05T11:59:32;93863.25;;;7.41;53.35
7768;BME280;3928;42.626;23.382;2023-04-05T12:02:00;93856.41;;;7.46;53.32
7768;BME280;3928;42.626;23.382;2023-04-05T12:04:29;93859.25;;;7.19;54.39
7768;BME280;3928;42.626;23.382;2023-04-05T12:07:14;93854.38;;;6.97;54.69
7768;BME280;3928;42.626;23.382;2023-04-05T12:10:00;93862.13;;;6.90;54.22
7768;BME280;3928;42.626;23.382;2023-04-05T12:12:32;93853.78;;;6.76;55.12
7768;BME280;3928;42.626;23.382;2023-04-05T12:15:00;93865.44;;;6.98;55.51
7768;BME280;3928;42.626;23.382;2023-04-05T12:17:45;93855.69;;;7.32;53.85
7768;BME280;3928;42.626;23.382;2023-04-05T12:20:16;93865.03;;;7.33;53.56
7768;BME280;3928;42.626;23.382;2023-04-05T12:22:45;93862.75;;;7.12;54.45
7768;BME280;3928;42.626;23.382;2023-04-05T12:25:14;93855.97;;;7.08;55.23
7768;BME280;3928;42.626;23.382;2023-04-05T12:27:41;93869.59;;;7.07;55.59
7768;BME280;3928;42.626;23.382;2023-04-05T12:30:10;93852.53;;;7.13;55.66
7768;BME280;3928;42.626;23.382;2023-04-05T12:32:43;93849.09;;;7.16;55.47
7768;BME280;3928;42.626;23.382;2023-04-05T12:35:12;93854.97;;;7.24;55.70
7768;BME280;3928;42.626;23.382;2023-04-05T12:37:40;93856.53;;;7.36;55.65
7768;BME280;3928;42.626;23.382;2023-04-05T12:40:08;93863.34;;;7.33;55.53
7768;BME280;3928;42.626;23.382;2023-04-05T12:42:36;93815.75;;;7.29;54.78
7768;BME280;3928;42.626;23.382;2023-04-05T12:45:04;93841.22;;;7.36;55.12
7768;BME280;3928;42.626;23.382;2023-04-05T12:47:34;93844.06;;;7.77;54.53
7768;BME280;3928;42.626;23.382;2023-04-05T12:50:10;93849.75;;;7.99;54.37
7768;BME280;3928;42.626;23.382;2023-04-05T12:52:37;93849.31;;;8.27;52.39
7768;BME280;3928;42.626;23.382;2023-04-05T12:55:13;93858.69;;;8.83;53.39
7768;BME280;3928;42.626;23.382;2023-04-05T12:57:41;93850.63;;;9.49;50.90
7768;BME280;3928;42.626;23.382;2023-04-05T13:00:09;93844.06;;;9.34;50.29
7768;BME280;3928;42.626;23.382;2023-04-05T13:02:36;93854.50;;;10.09;48.83
7768;BME280;3928;42.626;23.382;2023-04-05T13:05:03;93859.41;;;10.19;47.73
7768;BME280;3928;42.626;23.382;2023-04-05T13:07:30;93845.41;;;10.70;45.89
7768;BME280;3928;42.626;23.382;2023-04-05T13:09:57;93855.78;;;10.99;44.55
7768;BME280;3928;42.626;23.382;2023-04-05T13:12:25;93859.81;;;11.42;44.61
7768;BME280;3928;42.626;23.382;2023-04-05T13:14:52;93848.84;;;11.66;42.03
7768;BME280;3928;42.626;23.382;2023-04-05T13:17:19;93857.09;;;11.78;41.79
7768;BME280;3928;42.626;23.382;2023-04-05T13:19:45;93853.97;;;11.35;42.15
7768;BME280;3928;42.626;23.382;2023-04-05T13:22:12;93821.16;;;10.81;42.09
7768;BME280;3928;42.626;23.382;2023-04-05T13:24:39;93852.81;;;10.46;43.19
7768;BME280;3928;42.626;23.382;2023-04-05T13:27:06;93846.13;;;10.75;42.55
7768;BME280;3928;42.626;23.382;2023-04-05T13:29:34;93852.59;;;10.91;42.58
7768;BME280;3928;42.626;23.382;2023-04-05T13:32:01;93849.84;;;10.97;42.01